sensor_id;sensor_type;location;lat;lon;timestamp;temperature;humidity
51557;DHT22;38766;53.194;5.532;2023-02-03T00:00:36;8.40;99.90
51557;DHT22;38766;53.194;5.532;2023-02-03T00:03:03;8.40;99.90
51557;DHT22;38766;53.194;5.532;2023-02-03T00:05:30;8.40;99.90
51557;DHT22;38766;53.194;5.532;2023-02-03T00:07:56;8.40;99.90
51557;DHT22;38766;53.194;5.532;2023-02-03T00:10:22;8.40;99.90
51557;DHT22;38766;53.194;5.532;2023-02-03T00:12:49;8.40;99.90
51557;DHT22;38766;53.194;5.532;2023-02-03T00:15:15;8.40;99.90
51557;DHT22;38766;53.194;5.532;2023-02-03T00:17:41;8.40;99.90
51557;DHT22;38766;53.194;5.532;2023-02-03T00:20:08;8.50;99.90
51557;DHT22;38766;53.194;5.532;2023-02-03T00:22:33;8.40;99.90
51557;DHT22;38766;53.194;5.532;2023-02-03T00:24:59;8.40;99.90
51557;DHT22;38766;53.194;5.532;2023-02-03T00:27:25;8.40;99.90
51557;DHT22;38766;53.194;5.532;2023-02-03T00:29:50;8.50;99.90
51557;DHT22;38766;53.194;5.532;2023-02-03T00:32:16;8.40;99.90
51557;DHT22;38766;53.194;5.532;2023-02-03T00:34:42;8.50;99.90
51557;DHT22;38766;53.194;5.532;2023-02-03T00:37:07;8.50;99.90
51557;DHT22;38766;53.194;5.532;2023-02-03T00:39:35;8.50;99.90
51557;DHT22;38766;53.194;5.532;2023-02-03T00:42:03;8.60;99.90
51557;DHT22;38766;53.194;5.532;2023-02-03T00:44:29;8.60;99.90
51557;DHT22;38766;53.194;5.532;2023-02-03T00:46:55;8.60;99.90
51557;DHT22;38766;53.194;5.532;2023-02-03T00:49:20;8.60;99.90
51557;DHT22;38766;53.194;5.532;2023-02-03T00:51:46;8.60;99.90
51557;DHT22;38766;53.194;5.532;2023-02-03T00:54:11;8.60;99.90
51557;DHT22;38766;53.194;5.532;2023-02-03T00:56:38;8.70;99.90
51557;DHT22;38766;53.194;5.532;2023-02-03T00:59:04;8.60;99.90
51557;DHT22;38766;53.194;5.532;2023-02-03T01:01:30;8.60;99.90
51557;DHT22;38766;53.194;5.532;2023-02-03T01:03:55;8.60;99.90
51557;DHT22;38766;53.194;5.532;2023-02-03T01:06:22;8.70;99.90
51557;DHT22;38766;53.194;5.532;2023-02-03T01:08:48;8.70;99.90
51557;DHT22;38766;53.194;5.532;2023-02-03T01:11:25;8.70;99.90
51557;DHT22;38766;53.194;5.532;2023-02-03T01:13:55;8.70;99.90
51557;DHT22;38766;53.194;5.532;2023-02-03T01:16:24;8.70;99.90
51557;DHT22;38766;53.194;5.532;2023-02-03T01:18:50;8.70;99.90
51557;DHT22;38766;53.194;5.532;2023-02-03T01:21:19;8.60;99.90
51557;DHT22;38766;53.194;5.532;2023-02-03T01:23:45;8.60;99.90
51557;DHT22;38766;53.194;5.532;2023-02-03T01:26:14;8.60;99.90
51557;DHT22;38766;53.194;5.532;2023-02-03T01:28:40;8.70;99.90
51557;DHT22;38766;53.194;5.532;2023-02-03T01:31:15;8.60;99.90
51557;DHT22;38766;53.194;5.532;2023-02-03T01:33:41;8.60;99.90
51557;DHT22;38766;53.194;5.532;2023-02-03T01:36:10;8.60;99.90
51557;DHT22;38766;53.194;5.532;2023-02-03T01:38:37;8.60;99.90
51557;DHT22;38766;53.194;5.532;2023-02-03T01:41:05;8.60;99.90
51557;DHT22;38766;53.194;5.532;2023-02-03T01:43:39;8.70;99.90
51557;DHT22;38766;53.194;5.532;2023-02-03T01:46:32;8.70;99.90
51557;DHT22;38766;53.194;5.532;2023-02-03T01:51:33;8.60;99.90
51557;DHT22;38766;53.194;5.532;2023-02-03T01:54:00;8.70;99.90
51557;DHT22;38766;53.194;5.532;2023-02-03T01:56:28;8.60;99.90
51557;DHT22;38766;53.194;5.532;2023-02-03T01:58:54;8.60;99.90
51557;DHT22;38766;53.194;5.532;2023-02-03T02:01:20;8.60;99.90
51557;DHT22;38766;53.194;5.532;2023-02-03T02:03:51;8.70;99.90
51557;DHT22;38766;53.194;5.532;2023-02-03T02:06:18;8.70;99.90
51557;DHT22;38766;53.194;5.532;2023-02-03T02:08:47;8.60;99.90
51557;DHT22;38766;53.194;5.532;2023-02-03T02:11:13;8.70;99.90
51557;DHT22;38766;53.194;5.532;2023-02-03T02:13:40;8.60;99.90
51557;DHT22;38766;53.194;5.532;2023-02-03T02:18:58;8.60;99.90
51557;DHT22;38766;53.194;5.532;2023-02-03T02:27:53;8.60;99.90
51557;DHT22;38766;53.194;5.532;2023-02-03T02:41:38;8.50;99.90
51557;DHT22;38766;53.194;5.532;2023-02-03T02:44:13;8.50;99.90
51557;DHT22;38766;53.194;5.532;2023-02-03T02:46:43;8.50;99.90
51557;DHT22;38766;53.194;5.532;2023-02-03T02:49:33;8.50;99.90
51557;DHT22;38766;53.194;5.532;2023-02-03T02:52:00;8.50;99.90
51557;DHT22;38766;53.194;5.532;2023-02-03T02:54:28;8.30;99.90
51557;DHT22;38766;53.194;5.532;2023-02-03T02:57:01;8.40;99.90
51557;DHT22;38766;53.194;5.532;2023-02-03T02:59:28;8.30;99.90
51557;DHT22;38766;53.194;5.532;2023-02-03T03:01:53;8.30;99.90
51557;DHT22;38766;53.194;5.532;2023-02-03T03:04:23;8.40;99.90
51557;DHT22;38766;53.194;5.532;2023-02-03T03:07:10;8.30;99.90
51557;DHT22;38766;53.194;5.532;2023-02-03T03:09:57;8.40;99.90
51557;DHT22;38766;53.194;5.532;2023-02-03T03:12:34;8.40;99.90
51557;DHT22;38766;53.194;5.532;2023-02-03T03:15:04;8.40;99.90
51557;DHT22;38766;53.194;5.532;2023-02-03T03:17:33;8.50;99.90
51557;DHT22;38766;53.194;5.532;2023-02-03T03:20:06;8.50;99.90
51557;DHT22;38766;53.194;5.532;2023-02-03T03:22:37;8.50;99.90
51557;DHT22;38766;53.194;5.532;2023-02-03T03:25:11;8.50;99.90
51557;DHT22;38766;53.194;5.532;2023-02-03T03:27:42;8.50;99.90
51557;DHT22;38766;53.194;5.532;2023-02-03T03:30:17;8.50;99.90
51557;DHT22;38766;53.194;5.532;2023-02-03T03:32:45;8.60;99.90
51557;DHT22;38766;53.194;5.532;2023-02-03T03:35:11;8.60;99.90
51557;DHT22;38766;53.194;5.532;2023-02-03T03:37:52;8.60;99.90
51557;DHT22;38766;53.194;5.532;2023-02-03T03:42:57;8.60;99.90
51557;DHT22;38766;53.194;5.532;2023-02-03T03:45:40;8.60;99.90
51557;DHT22;38766;53.194;5.532;2023-02-03T03:48:12;8.60;99.90
51557;DHT22;38766;53.194;5.532;2023-02-03T03:50:48;8.50;99.90
51557;DHT22;38766;53.194;5.532;2023-02-03T03:53:16;8.60;99.90
51557;DHT22;38766;53.194;5.532;2023-02-03T03:55:46;8.50;99.90
51557;DHT22;38766;53.194;5.532;2023-02-03T03:58:17;8.60;99.90
51557;DHT22;38766;53.194;5.532;2023-02-03T04:00:46;8.50;99.90
51557;DHT22;38766;53.194;5.532;2023-02-03T04:03:18;8.60;99.90
51557;DHT22;38766;53.194;5.532;2023-02-03T04:05:45;8.50;99.90
51557;DHT22;38766;53.194;5.532;2023-02-03T04:08:10;8.50;99.90
51557;DHT22;38766;53.194;5.532;2023-02-03T04:10:40;8.60;99.90
51557;DHT22;38766;53.194;5.532;2023-02-03T04:13:08;8.50;99.90
51557;DHT22;38766;53.194;5.532;2023-02-03T04:15:34;8.60;99.90
51557;DHT22;38766;53.194;5.532;2023-02-03T04:17:59;8.50;99.90
51557;DHT22;38766;53.194;5.532;2023-02-03T04:20:29;8.50;99.90
51557;DHT22;38766;53.194;5.532;2023-02-03T04:22:56;8.50;99.90
51557;DHT22;38766;53.194;5.532;2023-02-03T04:25:22;8.60;99.90
51557;DHT22;38766;53.194;5.532;2023-02-03T04:27:47;8.50;99.90
51557;DHT22;38766;53.194;5.532;2023-02-03T04:30:13;8.50;99.90
51557;DHT22;38766;53.194;5.532;2023-02-03T04:32:39;8.50;99.90
51557;DHT22;38766;53.194;5.532;2023-02-03T04:35:06;8.50;99.90
51557;DHT22;38766;53.194;5.532;2023-02-03T04:37:32;8.50;99.90
51557;DHT22;38766;53.194;5.532;2023-02-03T04:39:58;8.50;99.90
51557;DHT22;38766;53.194;5.532;2023-02-03T04:42:24;8.50;99.90
51557;DHT22;38766;53.194;5.532;2023-02-03T04:44:50;8.50;99.90
51557;DHT22;38766;53.194;5.532;2023-02-03T04:47:17;8.50;99.90
51557;DHT22;38766;53.194;5.532;2023-02-03T04:49:43;8.40;99.90
51557;DHT22;38766;53.194;5.532;2023-02-03T04:52:10;8.40;99.90
51557;DHT22;38766;53.194;5.532;2023-02-03T04:54:36;8.40;99.90
51557;DHT22;38766;53.194;5.532;2023-02-03T04:57:02;8.50;99.90
51557;DHT22;38766;53.194;5.532;2023-02-03T04:59:27;8.50;99.90
51557;DHT22;38766;53.194;5.532;2023-02-03T05:01:53;8.50;99.90
51557;DHT22;38766;53.194;5.532;2023-02-03T05:04:19;8.50;99.90
51557;DHT22;38766;53.194;5.532;2023-02-03T05:06:45;8.50;99.90
51557;DHT22;38766;53.194;5.532;2023-02-03T05:09:10;8.50;99.90
51557;DHT22;38766;53.194;5.532;2023-02-03T05:11:36;8.50;99.90
51557;DHT22;38766;53.194;5.532;2023-02-03T05:14:01;8.50;99.90
51557;DHT22;38766;53.194;5.532;2023-02-03T05:16:27;8.60;99.90
51557;DHT22;38766;53.194;5.532;2023-02-03T05:18:53;8.50;99.90
51557;DHT22;38766;53.194;5.532;2023-02-03T05:21:18;8.60;99.90
51557;DHT22;38766;53.194;5.532;2023-02-03T05:23:44;8.60;99.90
51557;DHT22;38766;53.194;5.532;2023-02-03T05:26:10;8.60;99.90
51557;DHT22;38766;53.194;5.532;2023-02-03T05:28:35;8.70;99.90
51557;DHT22;38766;53.194;5.532;2023-02-03T05:31:01;8.60;99.90
51557;DHT22;38766;53.194;5.532;2023-02-03T05:33:27;8.60;99.90
51557;DHT22;38766;53.194;5.532;2023-02-03T05:35:54;8.70;99.90
51557;DHT22;38766;53.194;5.532;2023-02-03T05:38:19;8.70;99.90
51557;DHT22;38766;53.194;5.532;2023-02-03T05:40:49;8.70;99.90
51557;DHT22;38766;53.194;5.532;2023-02-03T05:43:21;8.70;99.90
51557;DHT22;38766;53.194;5.532;2023-02-03T05:45:46;8.80;99.90
51557;DHT22;38766;53.194;5.532;2023-02-03T05:48:12;8.70;99.90
51557;DHT22;38766;53.194;5.532;2023-02-03T05:50:38;8.70;99.90
51557;DHT22;38766;53.194;5.532;2023-02-03T05:53:05;8.80;99.90
51557;DHT22;38766;53.194;5.532;2023-02-03T05:55:31;8.80;99.90
51557;DHT22;38766;53.194;5.532;2023-02-03T05:57:58;8.70;99.90
51557;DHT22;38766;53.194;5.532;2023-02-03T06:00:27;8.70;99.90
51557;DHT22;38766;53.194;5.532;2023-02-03T06:02:58;8.80;99.90
51557;DHT22;38766;53.194;5.532;2023-02-03T06:05:25;8.70;99.90
51557;DHT22;38766;53.194;5.532;2023-02-03T06:07:51;8.70;99.90
51557;DHT22;38766;53.194;5.532;2023-02-03T06:10:17;8.70;99.90
51557;DHT22;38766;53.194;5.532;2023-02-03T06:12:43;8.70;99.90
51557;DHT22;38766;53.194;5.532;2023-02-03T06:15:09;8.60;99.90
51557;DHT22;38766;53.194;5.532;2023-02-03T06:17:36;8.60;99.90
51557;DHT22;38766;53.194;5.532;2023-02-03T06:20:07;8.70;99.90
51557;DHT22;38766;53.194;5.532;2023-02-03T06:22:33;8.60;99.90
51557;DHT22;38766;53.194;5.532;2023-02-03T06:24:59;8.70;99.90
51557;DHT22;38766;53.194;5.532;2023-02-03T06:27:25;8.60;99.90
51557;DHT22;38766;53.194;5.532;2023-02-03T06:29:50;8.60;99.90
51557;DHT22;38766;53.194;5.532;2023-02-03T06:32:16;8.60;99.90
51557;DHT22;38766;53.194;5.532;2023-02-03T06:34:42;8.70;99.90
51557;DHT22;38766;53.194;5.532;2023-02-03T06:37:07;8.70;99.90
51557;DHT22;38766;53.194;5.532;2023-02-03T06:39:33;8.60;99.90
51557;DHT22;38766;53.194;5.532;2023-02-03T06:41:58;8.60;99.90
51557;DHT22;38766;53.194;5.532;2023-02-03T06:44:24;8.60;99.90
51557;DHT22;38766;53.194;5.532;2023-02-03T06:46:51;8.70;99.90
51557;DHT22;38766;53.194;5.532;2023-02-03T06:49:17;8.70;99.90
51557;DHT22;38766;53.194;5.532;2023-02-03T06:51:44;8.60;99.90
51557;DHT22;38766;53.194;5.532;2023-02-03T06:54:10;8.60;99.90
51557;DHT22;38766;53.194;5.532;2023-02-03T06:56:36;8.60;99.90
51557;DHT22;38766;53.194;5.532;2023-02-03T06:59:02;8.60;99.90
51557;DHT22;38766;53.194;5.532;2023-02-03T07:01:28;8.70;99.90
51557;DHT22;38766;53.194;5.532;2023-02-03T07:03:54;8.60;99.90
51557;DHT22;38766;53.194;5.532;2023-02-03T07:06:27;8.60;99.90
51557;DHT22;38766;53.194;5.532;2023-02-03T07:08:55;8.60;99.90
51557;DHT22;38766;53.194;5.532;2023-02-03T07:11:22;8.60;99.90
51557;DHT22;38766;53.194;5.532;2023-02-03T07:13:48;8.60;99.90
51557;DHT22;38766;53.194;5.532;2023-02-03T07:16:14;8.60;99.90
51557;DHT22;38766;53.194;5.532;2023-02-03T07:18:40;8.70;99.90
51557;DHT22;38766;53.194;5.532;2023-02-03T07:21:06;8.60;99.90
51557;DHT22;38766;53.194;5.532;2023-02-03T07:23:32;8.60;99.90
51557;DHT22;38766;53.194;5.532;2023-02-03T07:26:03;8.60;99.90
51557;DHT22;38766;53.194;5.532;2023-02-03T07:28:30;8.70;99.90
51557;DHT22;38766;53.194;5.532;2023-02-03T07:30:55;8.70;99.90
51557;DHT22;38766;53.194;5.532;2023-02-03T07:33:21;8.70;99.90
51557;DHT22;38766;53.194;5.532;2023-02-03T07:35:54;8.80;99.90
51557;DHT22;38766;53.194;5.532;2023-02-03T07:38:20;8.80;99.90
51557;DHT22;38766;53.194;5.532;2023-02-03T07:40:46;8.80;99.90
51557;DHT22;38766;53.194;5.532;2023-02-03T07:43:11;8.80;99.90
51557;DHT22;38766;53.194;5.532;2023-02-03T07:45:37;8.80;99.90
51557;DHT22;38766;53.194;5.532;2023-02-03T07:48:03;8.70;99.90
51557;DHT22;38766;53.194;5.532;2023-02-03T07:50:29;8.70;99.90
51557;DHT22;38766;53.194;5.532;2023-02-03T07:52:54;8.70;99.90
51557;DHT22;38766;53.194;5.532;2023-02-03T07:55:21;8.70;99.90
51557;DHT22;38766;53.194;5.532;2023-02-03T07:57:47;8.60;99.90
51557;DHT22;38766;53.194;5.532;2023-02-03T08:00:14;8.60;99.90
51557;DHT22;38766;53.194;5.532;2023-02-03T08:02:43;8.60;99.90
51557;DHT22;38766;53.194;5.532;2023-02-03T08:05:09;8.60;99.90
51557;DHT22;38766;53.194;5.532;2023-02-03T08:07:35;8.50;99.90
51557;DHT22;38766;53.194;5.532;2023-02-03T08:10:01;8.50;99.90
51557;DHT22;38766;53.194;5.532;2023-02-03T08:12:26;8.40;99.90
51557;DHT22;38766;53.194;5.532;2023-02-03T08:14:52;8.50;99.90
51557;DHT22;38766;53.194;5.532;2023-02-03T08:17:18;8.40;99.90
51557;DHT22;38766;53.194;5.532;2023-02-03T08:19:43;8.40;99.90
51557;DHT22;38766;53.194;5.532;2023-02-03T08:22:09;8.50;99.90
51557;DHT22;38766;53.194;5.532;2023-02-03T08:24:41;8.40;99.90
51557;DHT22;38766;53.194;5.532;2023-02-03T08:27:11;8.40;99.90
51557;DHT22;38766;53.194;5.532;2023-02-03T08:32:08;8.40;99.90
51557;DHT22;38766;53.194;5.532;2023-02-03T08:34:34;8.50;99.90
51557;DHT22;38766;53.194;5.532;2023-02-03T08:37:00;8.40;99.90
51557;DHT22;38766;53.194;5.532;2023-02-03T08:39:26;8.40;99.90
51557;DHT22;38766;53.194;5.532;2023-02-03T08:41:54;8.30;99.90
51557;DHT22;38766;53.194;5.532;2023-02-03T08:44:20;8.40;99.90
51557;DHT22;38766;53.194;5.532;2023-02-03T08:46:52;8.40;99.90
51557;DHT22;38766;53.194;5.532;2023-02-03T08:49:25;8.40;99.90
51557;DHT22;38766;53.194;5.532;2023-02-03T08:51:57;8.40;99.90
51557;DHT22;38766;53.194;5.532;2023-02-03T08:54:23;8.50;99.90
51557;DHT22;38766;53.194;5.532;2023-02-03T08:56:52;8.40;99.90
51557;DHT22;38766;53.194;5.532;2023-02-03T08:59:18;8.40;99.90
51557;DHT22;38766;53.194;5.532;2023-02-03T09:01:44;8.40;99.90
51557;DHT22;38766;53.194;5.532;2023-02-03T09:04:15;8.50;99.90
51557;DHT22;38766;53.194;5.532;2023-02-03T09:06:45;8.40;99.90
51557;DHT22;38766;53.194;5.532;2023-02-03T09:09:13;8.40;99.90
51557;DHT22;38766;53.194;5.532;2023-02-03T09:11:40;8.50;99.90
51557;DHT22;38766;53.194;5.532;2023-02-03T09:14:06;8.50;99.90
51557;DHT22;38766;53.194;5.532;2023-02-03T09:16:32;8.60;99.90
51557;DHT22;38766;53.194;5.532;2023-02-03T09:18:58;8.60;99.90
51557;DHT22;38766;53.194;5.532;2023-02-03T09:21:24;8.70;99.90
51557;DHT22;38766;53.194;5.532;2023-02-03T09:23:49;8.70;99.90
51557;DHT22;38766;53.194;5.532;2023-02-03T09:26:15;8.70;99.90
51557;DHT22;38766;53.194;5.532;2023-02-03T09:28:41;8.80;99.90
51557;DHT22;38766;53.194;5.532;2023-02-03T09:31:09;8.80;99.90
51557;DHT22;38766;53.194;5.532;2023-02-03T09:33:35;8.70;99.90
51557;DHT22;38766;53.194;5.532;2023-02-03T09:36:02;8.80;99.90
51557;DHT22;38766;53.194;5.532;2023-02-03T09:38:28;8.80;99.90
51557;DHT22;38766;53.194;5.532;2023-02-03T09:41:03;8.90;99.90
51557;DHT22;38766;53.194;5.532;2023-02-03T09:43:57;8.90;99.90
51557;DHT22;38766;53.194;5.532;2023-02-03T09:46:26;8.90;99.90
51557;DHT22;38766;53.194;5.532;2023-02-03T09:49:27;8.90;99.90
51557;DHT22;38766;53.194;5.532;2023-02-03T09:52:01;8.90;99.90
51557;DHT22;38766;53.194;5.532;2023-02-03T09:54:38;8.90;99.90
51557;DHT22;38766;53.194;5.532;2023-02-03T09:57:21;8.90;99.90
51557;DHT22;38766;53.194;5.532;2023-02-03T09:59:51;8.90;99.90
51557;DHT22;38766;53.194;5.532;2023-02-03T10:10:37;9.00;99.90
51557;DHT22;38766;53.194;5.532;2023-02-03T10:13:21;9.00;99.90
51557;DHT22;38766;53.194;5.532;2023-02-03T10:18:46;9.00;99.90
51557;DHT22;38766;53.194;5.532;2023-02-03T10:23:57;9.00;99.90
51557;DHT22;38766;53.194;5.532;2023-02-03T10:26:26;8.90;99.90
51557;DHT22;38766;53.194;5.532;2023-02-03T10:28:54;8.90;99.90
51557;DHT22;38766;53.194;5.532;2023-02-03T10:31:23;9.00;99.90
51557;DHT22;38766;53.194;5.532;2023-02-03T10:34:00;9.00;99.90
51557;DHT22;38766;53.194;5.532;2023-02-03T10:39:21;8.90;99.90
51557;DHT22;38766;53.194;5.532;2023-02-03T10:41:49;8.90;99.90
51557;DHT22;38766;53.194;5.532;2023-02-03T10:44:15;8.90;99.90
51557;DHT22;38766;53.194;5.532;2023-02-03T10:46:42;8.90;99.90
51557;DHT22;38766;53.194;5.532;2023-02-03T10:49:11;8.80;99.90
51557;DHT22;38766;53.194;5.532;2023-02-03T10:51:49;8.90;99.90
51557;DHT22;38766;53.194;5.532;2023-02-03T10:54:33;8.90;99.90
51557;DHT22;38766;53.194;5.532;2023-02-03T10:57:11;8.90;99.90
51557;DHT22;38766;53.194;5.532;2023-02-03T10:59:44;8.90;99.90
51557;DHT22;38766;53.194;5.532;2023-02-03T11:02:27;8.90;99.90
51557;DHT22;38766;53.194;5.532;2023-02-03T11:07:40;8.90;99.90
51557;DHT22;38766;53.194;5.532;2023-02-03T11:10:35;8.90;99.90
51557;DHT22;38766;53.194;5.532;2023-02-03T11:13:22;8.90;99.90
51557;DHT22;38766;53.194;5.532;2023-02-03T11:18:32;8.90;99.90
51557;DHT22;38766;53.194;5.532;2023-02-03T11:21:06;8.90;99.90
51557;DHT22;38766;53.194;5.532;2023-02-03T11:23:32;9.00;99.90
51557;DHT22;38766;53.194;5.532;2023-02-03T11:25:58;8.90;99.90
51557;DHT22;38766;53.194;5.532;2023-02-03T11:28:27;8.90;99.90
51557;DHT22;38766;53.194;5.532;2023-02-03T11:30:56;9.00;99.90
51557;DHT22;38766;53.194;5.532;2023-02-03T11:33:25;8.90;99.90
51557;DHT22;38766;53.194;5.532;2023-02-03T11:35:58;8.90;99.90
51557;DHT22;38766;53.194;5.532;2023-02-03T11:38:29;8.80;99.90
51557;DHT22;38766;53.194;5.532;2023-02-03T11:40:59;8.90;99.90
51557;DHT22;38766;53.194;5.532;2023-02-03T11:43:28;8.90;99.90
51557;DHT22;38766;53.194;5.532;2023-02-03T11:46:03;8.90;99.90
51557;DHT22;38766;53.194;5.532;2023-02-03T11:48:30;8.90;99.90
51557;DHT22;38766;53.194;5.532;2023-02-03T11:51:17;8.90;99.90
51557;DHT22;38766;53.194;5.532;2023-02-03T12:08:24;9.00;99.90
51557;DHT22;38766;53.194;5.532;2023-02-03T12:14:28;9.00;99.90
51557;DHT22;38766;53.194;5.532;2023-02-03T12:20:17;9.00;99.90
51557;DHT22;38766;53.194;5.532;2023-02-03T12:28:39;8.90;99.90
51557;DHT22;38766;53.194;5.532;2023-02-03T12:31:35;8.90;99.90
51557;DHT22;38766;53.194;5.532;2023-02-03T12:36:45;8.90;99.90
51557;DHT22;38766;53.194;5.532;2023-02-03T12:39:18;8.90;99.90
51557;DHT22;38766;53.194;5.532;2023-02-03T12:41:51;8.90;99.90
51557;DHT22;38766;53.194;5.532;2023-02-03T12:44:47;8.90;99.90
51557;DHT22;38766;53.194;5.532;2023-02-03T12:49:58;8.90;99.90
51557;DHT22;38766;53.194;5.532;2023-02-03T12:52:41;9.00;99.90
51557;DHT22;38766;53.194;5.532;2023-02-03T12:58:00;9.00;99.90
51557;DHT22;38766;53.194;5.532;2023-02-03T13:03:31;9.10;99.90
51557;DHT22;38766;53.194;5.532;2023-02-03T13:06:06;9.20;99.90
51557;DHT22;38766;53.194;5.532;2023-02-03T13:08:59;9.30;99.90
51557;DHT22;38766;53.194;5.532;2023-02-03T13:11:37;9.30;99.90
51557;DHT22;38766;53.194;5.532;2023-02-03T13:19:58;9.40;99.90
51557;DHT22;38766;53.194;5.532;2023-02-03T13:22:24;9.40;99.90
51557;DHT22;38766;53.194;5.532;2023-02-03T13:35:42;9.50;99.90
51557;DHT22;38766;53.194;5.532;2023-02-03T13:38:31;9.50;99.90
51557;DHT22;38766;53.194;5.532;2023-02-03T13:41:16;9.50;99.90
51557;DHT22;38766;53.194;5.532;2023-02-03T13:43:45;9.50;99.90
51557;DHT22;38766;53.194;5.532;2023-02-03T13:46:28;9.60;99.90
51557;DHT22;38766;53.194;5.532;2023-02-03T13:48:58;9.50;99.90
51557;DHT22;38766;53.194;5.532;2023-02-03T13:51:36;9.50;99.90
51557;DHT22;38766;53.194;5.532;2023-02-03T13:54:14;9.50;99.90
51557;DHT22;38766;53.194;5.532;2023-02-03T13:56:41;9.50;99.90
51557;DHT22;38766;53.194;5.532;2023-02-03T14:01:42;9.40;99.90
51557;DHT22;38766;53.194;5.532;2023-02-03T14:07:01;9.40;99.90
51557;DHT22;38766;53.194;5.532;2023-02-03T14:12:32;9.40;99.90
51557;DHT22;38766;53.194;5.532;2023-02-03T14:25:30;9.20;99.90
51557;DHT22;38766;53.194;5.532;2023-02-03T14:28:08;9.20;99.90
51557;DHT22;38766;53.194;5.532;2023-02-03T14:34:05;9.10;99.90
51557;DHT22;38766;53.194;5.532;2023-02-03T14:39:26;9.00;99.90
51557;DHT22;38766;53.194;5.532;2023-02-03T14:42:07;8.90;99.90
51557;DHT22;38766;53.194;5.532;2023-02-03T14:45:15;8.90;99.90
51557;DHT22;38766;53.194;5.532;2023-02-03T14:53:23;8.90;99.90
51557;DHT22;38766;53.194;5.532;2023-02-03T14:59:23;8.80;99.90
51557;DHT22;38766;53.194;5.532;2023-02-03T15:06:50;8.80;99.90
51557;DHT22;38766;53.194;5.532;2023-02-03T15:09:43;8.70;99.90
51557;DHT22;38766;53.194;5.532;2023-02-03T15:12:19;8.80;99.90
51557;DHT22;38766;53.194;5.532;2023-02-03T15:14:47;8.80;99.90
51557;DHT22;38766;53.194;5.532;2023-02-03T15:17:28;8.70;99.90
51557;DHT22;38766;53.194;5.532;2023-02-03T15:19:55;8.70;99.90
51557;DHT22;38766;53.194;5.532;2023-02-03T15:22:28;8.70;99.90
51557;DHT22;38766;53.194;5.532;2023-02-03T15:24:58;8.70;99.90
51557;DHT22;38766;53.194;5.532;2023-02-03T15:27:32;8.70;99.90
51557;DHT22;38766;53.194;5.532;2023-02-03T15:30:16;8.60;99.90
51557;DHT22;38766;53.194;5.532;2023-02-03T15:32:52;8.60;99.90
51557;DHT22;38766;53.194;5.532;2023-02-03T15:35:22;8.60;99.90
51557;DHT22;38766;53.194;5.532;2023-02-03T15:37:52;8.60;99.90
51557;DHT22;38766;53.194;5.532;2023-02-03T15:40:29;8.60;99.90
51557;DHT22;38766;53.194;5.532;2023-02-03T15:43:03;8.60;99.90
51557;DHT22;38766;53.194;5.532;2023-02-03T15:46:15;8.60;99.90
51557;DHT22;38766;53.194;5.532;2023-02-03T15:59:00;8.50;99.90
51557;DHT22;38766;53.194;5.532;2023-02-03T16:01:26;8.50;99.90
51557;DHT22;38766;53.194;5.532;2023-02-03T16:03:54;8.50;99.90
51557;DHT22;38766;53.194;5.532;2023-02-03T16:06:32;8.50;99.90
51557;DHT22;38766;53.194;5.532;2023-02-03T16:09:04;8.40;99.90
51557;DHT22;38766;53.194;5.532;2023-02-03T16:11:36;8.40;99.90
51557;DHT22;38766;53.194;5.532;2023-02-03T16:14:09;8.40;99.90
51557;DHT22;38766;53.194;5.532;2023-02-03T16:16:40;8.40;99.90
51557;DHT22;38766;53.194;5.532;2023-02-03T16:19:19;8.40;99.90
51557;DHT22;38766;53.194;5.532;2023-02-03T16:24:38;8.30;99.90
51557;DHT22;38766;53.194;5.532;2023-02-03T16:35:56;8.20;99.90
51557;DHT22;38766;53.194;5.532;2023-02-03T16:38:48;8.20;99.90
51557;DHT22;38766;53.194;5.532;2023-02-03T16:41:32;8.20;99.90
51557;DHT22;38766;53.194;5.532;2023-02-03T16:44:17;8.10;99.90
51557;DHT22;38766;53.194;5.532;2023-02-03T16:47:02;8.10;99.90
51557;DHT22;38766;53.194;5.532;2023-02-03T16:49:46;8.10;99.90
51557;DHT22;38766;53.194;5.532;2023-02-03T16:52:31;8.10;99.90
51557;DHT22;38766;53.194;5.532;2023-02-03T16:54:57;8.10;99.90
51557;DHT22;38766;53.194;5.532;2023-02-03T16:57:23;8.00;99.90
51557;DHT22;38766;53.194;5.532;2023-02-03T16:59:48;8.00;99.90
51557;DHT22;38766;53.194;5.532;2023-02-03T17:02:14;8.00;99.90
51557;DHT22;38766;53.194;5.532;2023-02-03T17:04:40;8.00;99.90
51557;DHT22;38766;53.194;5.532;2023-02-03T17:07:06;7.90;99.90
51557;DHT22;38766;53.194;5.532;2023-02-03T17:09:32;8.00;99.90
51557;DHT22;38766;53.194;5.532;2023-02-03T17:12:04;7.90;99.90
51557;DHT22;38766;53.194;5.532;2023-02-03T17:14:29;7.90;99.90
51557;DHT22;38766;53.194;5.532;2023-02-03T17:16:55;7.90;99.90
51557;DHT22;38766;53.194;5.532;2023-02-03T17:19:21;7.90;99.90
51557;DHT22;38766;53.194;5.532;2023-02-03T17:21:46;7.90;99.90
51557;DHT22;38766;53.194;5.532;2023-02-03T17:24:13;7.90;99.90
51557;DHT22;38766;53.194;5.532;2023-02-03T17:26:39;7.90;99.90
51557;DHT22;38766;53.194;5.532;2023-02-03T17:29:04;7.90;99.90
51557;DHT22;38766;53.194;5.532;2023-02-03T17:31:31;7.80;99.90
51557;DHT22;38766;53.194;5.532;2023-02-03T17:33:57;7.80;99.90
51557;DHT22;38766;53.194;5.532;2023-02-03T17:36:23;7.80;99.90
51557;DHT22;38766;53.194;5.532;2023-02-03T17:38:53;7.90;99.90
51557;DHT22;38766;53.194;5.532;2023-02-03T17:41:22;7.90;99.90
51557;DHT22;38766;53.194;5.532;2023-02-03T17:43:49;7.90;99.90
51557;DHT22;38766;53.194;5.532;2023-02-03T17:46:18;7.90;99.90
51557;DHT22;38766;53.194;5.532;2023-02-03T17:48:44;7.90;99.90
51557;DHT22;38766;53.194;5.532;2023-02-03T17:51:13;7.90;99.90
51557;DHT22;38766;53.194;5.532;2023-02-03T17:53:40;7.90;99.90
51557;DHT22;38766;53.194;5.532;2023-02-03T17:56:20;7.90;99.90
51557;DHT22;38766;53.194;5.532;2023-02-03T17:58:47;7.90;99.90
51557;DHT22;38766;53.194;5.532;2023-02-03T18:01:18;7.90;99.90
51557;DHT22;38766;53.194;5.532;2023-02-03T18:03:44;7.90;99.90
51557;DHT22;38766;53.194;5.532;2023-02-03T18:06:11;7.90;99.90
51557;DHT22;38766;53.194;5.532;2023-02-03T18:08:38;7.90;99.90
51557;DHT22;38766;53.194;5.532;2023-02-03T18:11:04;7.90;99.90
51557;DHT22;38766;53.194;5.532;2023-02-03T18:13:30;8.00;99.90
51557;DHT22;38766;53.194;5.532;2023-02-03T18:16:01;8.00;99.90
51557;DHT22;38766;53.194;5.532;2023-02-03T18:18:26;7.90;99.90
51557;DHT22;38766;53.194;5.532;2023-02-03T18:20:53;7.90;99.90
51557;DHT22;38766;53.194;5.532;2023-02-03T18:23:19;7.90;99.90
51557;DHT22;38766;53.194;5.532;2023-02-03T18:25:51;7.90;99.90
51557;DHT22;38766;53.194;5.532;2023-02-03T18:28:16;7.90;99.90
51557;DHT22;38766;53.194;5.532;2023-02-03T18:30:42;7.90;99.90
51557;DHT22;38766;53.194;5.532;2023-02-03T18:33:08;7.90;99.90
51557;DHT22;38766;53.194;5.532;2023-02-03T18:35:34;7.90;99.90
51557;DHT22;38766;53.194;5.532;2023-02-03T18:37:59;7.90;99.90
51557;DHT22;38766;53.194;5.532;2023-02-03T18:40:25;7.90;99.90
51557;DHT22;38766;53.194;5.532;2023-02-03T18:42:51;7.90;99.90
51557;DHT22;38766;53.194;5.532;2023-02-03T18:45:16;7.90;99.90
51557;DHT22;38766;53.194;5.532;2023-02-03T18:47:42;7.90;99.90